Broadwell, Illinois
Current Conditions -  °F | °C
As of 4:52 AM on Thursday 27 Nov 2014 (Local Time) from KSPI Reporting Station
Overcast Overcast  
Wind Chill: -10°   Ceiling: 9000
Heat Index: -4°   Visibility: 8mi
Dew Point: -7°   Wind: 10mph
Humidity: 81%   Direction: 290°WNW
Pressure: 30.36"   Gusts: NA
Location:  39.9935°N, 89.4758°W
Report Text: KSPI 271052Z AUTO 29009KT 8SM FEW060 OVC090 M04/M07 A3036 RMK AO2 SLP288 T10391067
Loading
Personal Weather Stations






























Interactive Weather Map New forecast layout! Learn more

10-Day Weather Forecast

Advertisements
Track Severe Weather on mobile